Manistee, MI

6:03 AM EDT on April 27, 2015 (GMT -0400)
MesoWest | | Change Station
CLOSE
Current Station
Personal Weather Station
Location: Filer City, MI
Elevation: 659 ft
Nearby Weather Stations

Elev 659 ft 44.22 °N, 86.31 °W | Updated 28 minutes ago

Overcast
Overcast
39 °F
Feels Like 32 °F
N
12
Wind Variable Wind from NNW
Gusts 17.0 mph

Today
High -- | Low -- °F
--% Chance of Precip.
Yesterday
High -- | Low -- °F
Precip. -- in
6:42 AM 8:43 PM
Waxing Gibbous, 63% visible
Pressure 30.05 in
Visibility 10.0 miles
Clouds Overcast 4700 ft
Windchill 32 °F
Dew Point 36 °F
Humidity 90%
Rainfall in
Snow Depth Not available.
UV 0 out of 12
Pollen 10.10 out of 12
Air Quality Not available.
Flu Activity Regional
METAR KMBL 270955Z AUTO 35005KT 10SM OVC047 04/01 A3005 RMK AO1

More Conditions Fewer Conditions

Pressure 30.05 in
Visibility 10.0 miles
Clouds Overcast 4700 ft
Windchill 32 °F
Dew Point 36 °F
Humidity 90%
Rainfall in
Snow Depth Not available.
UV 0 out of 12
Pollen 10.10 out of 12
Air Quality Not available.
Flu Activity Regional
METAR KMBL 270955Z AUTO 35005KT 10SM OVC047 04/01 A3005 RMK AO1

More Conditions Fewer Conditions

Nowcast | as of 6:00 am EDT on April 27, 2015

At 7 am...mostly cloudy. Temperature 36. North winds 8 mph. At 9 am...mostly cloudy. Temperature 38. North winds 10 mph. At 11 am...mostly cloudy. Temperature 41. North winds 14 mph. At 1 PM...mostly cloudy. Temperature 45. North winds 14 mph.

×

10-Day Weather Forecast

Almanac

Astronomy

Apr. 27, 2015 Rise Set
Actual Time
Civil Twilight
Nautical Twilight
Astronomical Twilight
Moon
Length of Visible Light
Length of Day
Tomorrow will be .
, % of the Moon is Illuminated

Today's Extremes

State Highs State Lows

Community

WunderPhotos

Upload Photos

1,817,278 photos uploaded!

WunderBlogs® & News

Nearby

Air Quality

  Air Quality AQ Index Pollutant
Not available.

Snow Depth

Station Depth Elevation

Earthquake Activity

City Distance Mag. Time & Date
Minimum magnitude displayed is 2.5.

Coastal Water Temperatures

Place Temperature

Stations

Nearby Weather Stations

Station Location Temp. Windchill Dew Point Humidity Wind Precip. Elev Updated Type